Terminal Aerodrome Forecast
Issued by NWS

Home | Current Version | Previous Version | Graphics & Text | Print | Product List | Glossary On
Versions: 1 2 3 4 5 6 7 8 9 10 11 12 13 14 15 16 17 18
000
FTUS43 KABR 291739
TAFMBG
TAF
KMBG 291739Z 2918/3018 18008KT P6SM VCSH BKN070
     FM292300 15009KT P6SM BKN070
     FM300200 12008KT P6SM BKN140
     FM301400 15010KT P6SM SCT200=

USA.gov is the U.S. government's official web portal to all federal, state and local government web resources and services.